Latest Coastal Weather Observations for Point Stuart

IDD60701

Issued at 7:25 pm CST Wednesday 23 July 2014 (issued every 10 minutes, with the page automatically refreshed every 10 minutes)

About coastal observations | Map of coastal stations | Coastal observations for NT | Marine services | Other Formats
Station Details ID: 014254 Name: POINT STUART Lat: -12.24 Lon: 131.88 Height: 1.0 m
Data from the previous 72 hours. | See also: Recent months for locations in Northern Territory
Date/Time
CST
Temp

°C
Wind Pressure Rain
since 9am
mm
Weather Cloud Vis
km
Sea
Height
m
Swell
Dir
 
Speed
knots
Gust
knots
hPa Trend Height
m
Period
s
Dir
23/07:00pm 22.3 WNW 3 4 1011.7 - 0.0 - - - - - - -
23/06:30pm 24.0 NW 4 5 1011.4 - 0.0 - - - - - - -
23/06:00pm 26.2 NNW 4 6 1011.2 - 0.0 - - - - - - -
23/05:30pm 27.1 N 4 7 1011.0 - 0.0 - - - - - - -
23/05:00pm 27.9 N 6 9 1010.8 - 0.0 - - - - - - -
23/04:30pm 27.6 N 7 11 1010.6 - 0.0 - - - - - - -
23/04:00pm 27.5 N 7 11 1010.7 - 0.0 - - - - - - -
23/03:30pm 28.5 N 7 12 1010.7 - 0.0 - - - - - - -
23/03:00pm 28.4 N 7 12 1011.0 - 0.0 - - - - - - -
23/02:30pm 28.2 NNE 9 12 1011.4 - 0.0 - - - - - - -
23/02:00pm 28.3 ENE 7 10 1011.7 - 0.0 - - - - - - -
23/01:30pm 28.6 NNE 8 11 1012.3 - 0.0 - - - - - - -
23/01:00pm 28.3 NE 9 13 1012.8 - 0.0 - - - - - - -
23/12:30pm 28.2 ENE 8 11 1013.4 - 0.0 - - - - - - -
23/12:00pm 27.4 ENE 8 11 1014.1 - 0.0 - - - - - - -
23/11:30am 27.0 ENE 10 14 1014.6 - 0.0 - - - - - - -
23/11:00am 25.6 E 12 15 1015.0 - 0.0 - - - - - - -
23/10:30am 25.7 ESE 12 16 1015.3 - 0.0 - - - - - - -
23/10:00am 25.1 ESE 11 14 1015.6 - 0.0 - - - - - - -
23/09:30am 23.9 E 10 13 1015.7 - 0.0 - - - - - - -
23/09:00am 22.3 ESE 9 11 1015.6 - 0.0 - - - - - - -
23/08:30am 20.6 SE 7 9 1015.3 - 0.0 - - - - - - -
23/08:00am 19.1 SSE 5 9 1015.3 - 0.0 - - - - - - -
23/07:30am 18.4 SE 7 9 1015.0 - 0.0 - - - - - - -
23/07:00am 18.4 ESE 7 10 1014.7 - 0.0 - - - - - - -
23/06:30am 18.3 SE 6 7 1014.3 - 0.0 - - - - - - -
23/06:00am 18.4 ESE 5 6 1014.1 - 0.0 - - - - - - -
23/05:30am 18.4 SE 4 4 1014.0 - 0.0 - - - - - - -
23/05:00am 18.5 ESE 4 5 1013.7 - 0.0 - - - - - - -
23/04:30am 19.0 SE 4 5 1013.5 - 0.0 - - - - - - -
23/04:00am 19.0 SE 4 5 1013.3 - 0.0 - - - - - - -
23/03:30am 19.0 S 2 3 1013.2 - 0.0 - - - - - - -
23/03:00am 20.1 S 5 6 1013.2 - 0.0 - - - - - - -
23/02:30am 22.5 E 6 8 1013.4 - 0.0 - - - - - - -
23/02:00am 22.3 E 5 8 1013.7 - 0.0 - - - - - - -
23/01:30am 23.4 ENE 7 11 1014.0 - 0.0 - - - - - - -
23/01:00am 23.3 NE 8 13 1014.1 - 0.0 - - - - - - -
23/12:30am 23.6 NE 9 12 1014.3 - 0.0 - - - - - - -
23/12:00am 23.9 NE 9 14 1014.4 - 0.0 - - - - - - -
 
Date/Time
CST
Temp

°C
Wind Pressure Rain
since 9am
mm
Weather Cloud Vis
km
Sea
Height
m
Swell
Dir
 
Speed
knots
Gust
knots
hPa Trend Height
m
Period
s
Dir
22/11:30pm 23.8 NE 9 13 1014.3 - 0.0 - - - - - - -
22/11:00pm 23.7 NNE 8 13 1014.3 - 0.0 - - - - - - -
22/10:30pm 23.8 NNE 7 10 1014.2 - 0.0 - - - - - - -
22/10:00pm 23.9 NNE 8 13 1014.0 - 0.0 - - - - - - -
22/09:30pm 24.0 NNE 8 12 1013.8 - 0.0 - - - - - - -
22/09:00pm 24.1 NE 9 14 1013.7 - 0.0 - - - - - - -
22/08:30pm 24.3 NNE 8 14 1013.4 - 0.0 - - - - - - -
22/08:00pm 24.5 NNE 9 14 1013.1 - 0.0 - - - - - - -
22/07:30pm 24.6 NNE 8 13 1012.7 - 0.0 - - - - - - -
22/07:00pm 25.0 NNE 8 13 1012.4 - 0.0 - - - - - - -
22/06:30pm 25.0 NNE 6 9 1011.8 - 0.0 - - - - - - -
22/06:00pm 25.9 N 4 9 1011.8 - 0.0 - - - - - - -
22/05:30pm 26.9 NNW 4 7 1011.6 - 0.0 - - - - - - -
22/05:00pm 26.8 NNW 5 7 1011.4 - 0.0 - - - - - - -
22/04:30pm 28.5 NNW 4 7 1011.4 - 0.0 - - - - - - -
22/04:00pm 28.8 N 6 9 1011.5 - 0.0 - - - - - - -
22/03:30pm 28.7 NNE 7 10 1011.5 - 0.0 - - - - - - -
22/03:00pm 29.2 N 7 13 1011.7 - 0.0 - - - - - - -
22/02:30pm 29.7 NE 10 13 1012.0 - 0.0 - - - - - - -
22/02:00pm 29.1 NE 10 14 1012.4 - 0.0 - - - - - - -
22/01:30pm 30.6 E 12 17 1013.1 - 0.0 - - - - - - -
22/01:00pm 30.0 E 12 17 1013.8 - 0.0 - - - - - - -
22/12:30pm 28.3 E 14 18 1014.5 - 0.0 - - - - - - -
22/12:00pm 28.1 E 15 20 1015.0 - 0.0 - - - - - - -
22/11:30am 28.1 E 13 19 1015.5 - 0.0 - - - - - - -
22/11:00am 27.1 E 10 12 1016.0 - 0.0 - - - - - - -
22/10:30am 24.8 E 10 15 1016.6 - 0.0 - - - - - - -
22/10:00am 24.2 E 10 13 1016.9 - 0.0 - - - - - - -
22/09:30am 24.0 E 10 14 1017.0 - 0.0 - - - - - - -
22/09:00am 22.4 E 7 8 1016.9 - 0.0 - - - - - - -
22/08:30am 20.4 SE 4 5 1016.8 - 0.0 - - - - - - -
22/08:00am 18.5 CALM 0 0 1016.4 - 0.0 - - - - - - -
22/07:30am 17.3 CALM 0 0 1016.0 - 0.0 - - - - - - -
22/07:00am 17.4 ESE 3 4 1015.7 - 0.0 - - - - - - -
22/06:30am 17.4 SE 1 4 1015.5 - 0.0 - - - - - - -
22/06:00am 17.2 CALM 0 0 1015.0 - 0.0 - - - - - - -
22/05:30am 17.6 CALM 0 0 1014.6 - 0.0 - - - - - - -
22/05:00am 18.7 ESE 3 4 1014.4 - 0.0 - - - - - - -
22/04:30am 19.0 SE 4 5 1014.3 - 0.0 - - - - - - -
22/04:00am 19.2 ESE 5 6 1014.4 - 0.0 - - - - - - -
22/03:30am 19.2 SE 5 6 1014.5 - 0.0 - - - - - - -
22/03:00am 19.8 ESE 5 5 1014.7 - 0.0 - - - - - - -
22/02:30am 20.9 SE 6 10 1014.7 - 0.0 - - - - - - -
22/02:00am 23.0 E 8 10 1014.7 - 0.0 - - - - - - -
22/01:30am 23.1 E 7 11 1014.7 - 0.0 - - - - - - -
22/01:00am 23.2 ENE 8 10 1014.8 - 0.0 - - - - - - -
22/12:30am 23.1 ENE 7 9 1014.9 - 0.0 - - - - - - -
22/12:00am 23.2 ENE 9 12 1014.9 - 0.0 - - - - - - -
 
Date/Time
CST
Temp

°C
Wind Pressure Rain
since 9am
mm
Weather Cloud Vis
km
Sea
Height
m
Swell
Dir
 
Speed
knots
Gust
knots
hPa Trend Height
m
Period
s
Dir
21/11:30pm 23.3 NE 7 11 1015.1 - 0.0 - - - - - - -
21/11:00pm 23.6 NE 10 13 1015.2 - 0.0 - - - - - - -
21/10:30pm 23.7 NE 9 12 1015.4 - 0.0 - - - - - - -
21/10:00pm 24.1 NE 9 14 1015.4 - 0.0 - - - - - - -
21/09:30pm 24.3 NE 9 13 1015.3 - 0.0 - - - - - - -
21/09:00pm 24.7 NNE 7 12 1015.1 - 0.0 - - - - - - -
21/08:30pm 24.6 NNE 7 10 1014.7 - 0.0 - - - - - - -
21/08:00pm 24.3 N 6 10 1014.3 - 0.0 - - - - - - -
21/07:30pm 21.8 N 5 6 1013.7 - 0.0 - - - - - - -
21/07:00pm 23.1 NNE 3 4 1013.2 - 0.0 - - - - - - -
21/06:30pm 25.4 N 3 4 1012.8 - 0.0 - - - - - - -
21/06:00pm 26.9 N 4 6 1012.4 - 0.0 - - - - - - -
21/05:30pm 28.0 NNE 5 8 1012.1 - 0.0 - - - - - - -
21/05:00pm 28.8 N 5 8 1011.9 - 0.0 - - - - - - -
21/04:30pm 29.4 NNE 5 8 1011.9 - 0.0 - - - - - - -
21/04:00pm 29.8 NNE 7 8 1012.2 - 0.0 - - - - - - -
21/03:30pm 29.3 N 6 9 1012.4 - 0.0 - - - - - - -
21/03:00pm 29.0 NNE 7 10 1012.5 - 0.0 - - - - - - -
21/02:30pm 29.4 NE 8 11 1012.8 - 0.0 - - - - - - -
21/02:00pm 29.2 NE 9 13 1013.2 - 0.0 - - - - - - -
21/01:30pm 28.8 NNE 8 12 1013.6 - 0.0 - - - - - - -
21/01:00pm 29.2 NE 7 11 1014.0 - 0.0 - - - - - - -
21/12:30pm 29.8 ENE 8 12 1014.4 - 0.0 - - - - - - -
21/12:00pm 29.2 ENE 7 10 1015.1 - 0.0 - - - - - - -
21/11:30am 28.3 E 7 9 1015.5 - 0.0 - - - - - - -
21/11:00am 27.5 E 8 13 1015.9 - 0.0 - - - - - - -
21/10:30am 26.9 ESE 7 11 1016.0 - 0.0 - - - - - - -
21/10:00am 25.4 ESE 9 13 1016.1 - 0.0 - - - - - - -
21/09:30am 23.8 ESE 8 9 1016.3 - 0.0 - - - - - - -
21/09:00am 22.5 ESE 7 10 1016.3 - 0.0 - - - - - - -
21/08:30am 21.0 ESE 6 8 1016.2 - 0.0 - - - - - - -
21/08:00am 19.8 E 4 5 1016.0 - 0.0 - - - - - - -
21/07:30am 17.9 SE 3 4 1015.8 - 0.0 - - - - - - -
21/07:00am 17.6 SE 4 6 1015.6 - 0.0 - - - - - - -
21/06:30am 17.9 SE 4 4 1015.2 - 0.0 - - - - - - -
21/06:00am 18.6 ESE 4 5 1014.9 - 0.0 - - - - - - -
21/05:30am 18.8 ESE 4 5 1014.7 - 0.0 - - - - - - -
21/05:00am 20.1 ESE 6 8 1014.5 - 0.0 - - - - - - -
21/04:30am 22.4 E 12 15 1014.5 - 0.0 - - - - - - -
21/04:00am 20.7 E 7 10 1014.4 - 0.0 - - - - - - -
21/03:30am 18.1 SE 2 5 1014.5 - 0.0 - - - - - - -
21/03:00am 18.3 S 3 3 1014.6 - 0.0 - - - - - - -
21/02:30am 18.2 SSW 4 5 1014.7 - 0.0 - - - - - - -
21/02:00am 19.1 S 3 4 1014.8 - 0.0 - - - - - - -
21/01:30am 19.0 S 2 4 1014.8 - 0.0 - - - - - - -
21/01:00am 18.7 CALM 0 0 1014.8 - 0.0 - - - - - - -
21/12:30am 19.3 SSE 3 3 1014.8 - 0.0 - - - - - - -
21/12:00am 19.7 S 4 5 1014.7 - 0.0 - - - - - - -
 
Date/Time
CST
Temp

°C
Wind Pressure Rain
since 9am
mm
Weather Cloud Vis
km
Sea
Height
m
Swell
Dir
 
Speed
knots
Gust
knots
hPa Trend Height
m
Period
s
Dir
20/11:30pm 21.4 ENE 4 6 1014.5 - 0.0 - - - - - - -
20/11:00pm 22.1 NE 4 5 1014.4 - 0.0 - - - - - - -
20/10:30pm 22.4 NE 5 7 1014.5 - 0.0 - - - - - - -
20/10:00pm 23.2 NE 7 11 1014.6 - 0.0 - - - - - - -
20/09:30pm 22.8 NNE 6 7 1014.4 - 0.0 - - - - - - -
20/09:00pm 22.2 NNE 5 6 1014.2 - 0.0 - - - - - - -
20/08:30pm 20.1 N 3 5 1013.8 - 0.0 - - - - - - -
20/08:00pm 21.0 CALM 0 0 1013.3 - 0.0 - - - - - - -
20/07:30pm 21.2 CALM 0 0 1012.9 - 0.0 - - - - - - -

Other Formats:

Comma delimited format used in spreadsheet applications
http://www.bom.gov.au/fwo/IDD60701/IDD60701.94127.axf

JavaScript Object Notation format (JSON) in row-major order
http://www.bom.gov.au/fwo/IDD60701/IDD60701.94127.json